Latest Weather Observations for Pirlangimpi

IDD60801

Issued at 5:01 pm CST Sunday 11 December 2016 (issued every 30 minutes, with the page automatically refreshed every 10 minutes)

About weather observations | Map of weather stations | Latest weather observations for NT | Other Formats
Station Details ID: 014142 Name: PIRLANGIMPI AIRPORT Lat: -11.40 Lon: 130.42 Height: 18.3 m
Data from the previous 72 hours. | See also: Recent months at Pirlangimpi
Date/Time
CST
Temp
°C
App
Temp
°C
Dew
Point
°C
Rel
Hum
%
Delta-T
°C
Wind Press
QNH
hPa
Press
MSL
hPa
Rain since
9am
mm
Dir  Spd
km/h
Gust
km/h
Spd
kts
Gust
kts
11/05:00pm 28.4 33.4 23.8 76 3.2 SSW 4 6 2 3 1007.2 1007.1 68.4
11/04:30pm 28.9 34.9 24.2 76 3.3 CALM 0 2 0 1 1006.8 1006.7 68.4
11/04:00pm 27.3 33.3 24.2 83 2.1 CALM 0 2 0 1 1006.3 1006.2 68.4
11/03:30pm 26.0 31.5 24.6 92 1.0 W 4 7 2 4 1006.9 1006.8 68.4
11/03:00pm 25.2 30.8 24.3 95 0.6 WSW 2 7 1 4 1007.0 1006.9 68.4
11/02:30pm 24.7 30.7 24.2 97 0.3 CALM 0 2 0 1 1007.4 1007.3 68.4
11/02:00pm 23.9 29.3 23.2 96 0.5 CALM 0 2 0 1 1008.1 1008.0 68.4
11/01:30pm 23.8 27.9 23.0 95 0.5 SSE 6 13 3 7 1008.6 1008.5 67.6
11/01:04pm 24.4 23.7 22.5 89 1.3 ESE 30 50 16 27 1008.5 1008.4 43.2
11/01:00pm 25.2 24.3 21.5 80 2.5 ESE 28 44 15 24 1008.5 1008.4 40.8
11/12:54pm 25.2 25.4 22.1 83 2.1 E 24 41 13 22 1008.7 1008.6 38.4
11/12:30pm 29.0 34.0 24.8 78 2.9 NNW 7 22 4 12 1008.5 1008.4 3.0
11/12:00pm 31.8 37.3 24.7 66 5.0 WNW 4 6 2 3 1008.8 1008.7 0.0
11/11:30am 32.5 38.1 24.3 62 5.8 WSW 2 4 1 2 1009.2 1009.1 0.0
11/11:00am 31.3 36.4 24.7 68 4.6 SSW 6 9 3 5 1009.5 1009.4 0.0
11/10:30am 30.6 36.3 25.0 72 3.9 SSW 4 6 2 3 1010.1 1010.0 0.0
11/10:00am 30.5 35.4 24.4 70 4.3 SSW 6 7 3 4 1010.3 1010.2 0.0
11/09:30am 30.3 34.8 24.0 69 4.4 SSW 7 9 4 5 1009.9 1009.8 0.0
11/09:00am 31.1 36.6 24.0 66 4.9 SW 2 7 1 4 1009.8 1009.7 8.2
11/08:30am 30.0 35.8 23.9 70 4.2 CALM 0 0 0 0 1009.6 1009.5 8.2
11/08:00am 28.1 33.5 23.2 74 3.4 CALM 0 0 0 0 1009.5 1009.4 8.2
11/07:30am 26.7 32.3 23.6 83 2.1 CALM 0 2 0 1 1009.2 1009.1 8.2
11/07:00am 25.1 30.7 23.5 91 1.1 CALM 0 0 0 0 1009.0 1008.9 8.2
11/06:30am 24.3 29.4 22.7 91 1.1 CALM 0 0 0 0 1008.6 1008.5 8.2
11/06:00am 24.2 29.3 22.6 91 1.1 CALM 0 2 0 1 1008.3 1008.2 8.2
11/05:30am 24.1 28.4 22.0 88 1.4 NNW 2 2 1 1 1007.9 1007.8 8.2
11/05:00am 24.7 28.1 21.6 83 2.1 NNE 6 11 3 6 1007.5 1007.4 8.2
11/04:30am 25.9 30.6 24.3 91 1.1 NE 7 11 4 6 1007.4 1007.3 8.2
11/04:00am 25.7 31.2 24.7 94 0.7 ESE 4 6 2 3 1006.9 1006.8 8.2
11/03:30am 25.7 31.5 24.5 93 0.8 SSW 2 4 1 2 1006.7 1006.6 8.0
11/03:00am 25.5 31.3 24.5 94 0.7 S 2 4 1 2 1007.4 1007.3 8.0
11/02:30am 25.6 31.8 24.6 94 0.7 CALM 0 0 0 0 1007.1 1007.0 8.0
11/02:00am 25.5 31.6 24.5 94 0.7 CALM 0 0 0 0 1007.2 1007.1 8.0
11/01:30am 25.5 31.6 24.5 94 0.7 CALM 0 0 0 0 1007.5 1007.4 8.0
11/01:00am 25.3 31.3 24.3 94 0.7 CALM 0 0 0 0 1008.0 1007.9 8.0
11/12:30am 25.1 30.6 24.1 94 0.7 SSE 2 2 1 1 1008.3 1008.2 8.0
11/12:00am 24.9 30.7 23.9 94 0.7 CALM 0 0 0 0 1008.5 1008.4 8.0
 
Date/Time
CST
Temp
°C
App
Temp
°C
Dew
Point
°C
Rel
Hum
%
Delta-T
°C
Wind Press
QNH
hPa
Press
MSL
hPa
Rain since
9am
mm
Dir  Spd
km/h
Gust
km/h
Spd
kts
Gust
kts
10/11:30pm 24.7 30.0 23.7 94 0.7 ENE 2 2 1 1 1008.5 1008.4 8.0
10/11:00pm 24.5 30.1 23.5 94 0.7 CALM 0 0 0 0 1008.3 1008.2 8.0
10/10:30pm 24.3 29.5 22.9 92 0.9 CALM 0 0 0 0 1008.0 1007.9 8.0
10/10:00pm 24.6 30.0 23.2 92 0.9 CALM 0 0 0 0 1007.8 1007.7 8.0
10/09:30pm 24.5 29.9 23.3 93 0.8 CALM 0 0 0 0 1007.7 1007.6 8.0
10/09:00pm 24.6 30.0 23.2 92 1.0 CALM 0 0 0 0 1007.6 1007.5 8.0
10/08:30pm 24.7 29.9 22.9 90 1.2 CALM 0 0 0 0 1007.7 1007.6 8.0
10/08:00pm 24.9 30.2 23.0 89 1.3 CALM 0 0 0 0 1007.4 1007.3 8.0
10/07:30pm 24.9 29.3 22.8 88 1.4 S 4 6 2 3 1007.3 1007.2 8.0
10/07:00pm 24.6 28.7 23.0 91 1.1 NE 6 6 3 3 1007.1 1007.0 8.0
10/06:30pm 24.2 28.1 22.6 91 1.1 NE 6 9 3 5 1006.7 1006.6 8.0
10/06:00pm 24.2 26.2 22.3 89 1.3 ESE 15 24 8 13 1007.6 1007.5 7.4
10/05:30pm 28.4 31.6 23.1 73 3.6 SE 11 17 6 9 1007.5 1007.4 0.0
10/05:00pm 28.1 29.5 22.8 73 3.6 SSW 20 35 11 19 1007.1 1007.0 0.0
10/04:30pm 31.4 36.2 24.5 67 4.8 NW 7 13 4 7 1006.2 1006.1 0.0
10/04:00pm 33.7 38.1 25.1 60 6.1 NW 11 20 6 11 1005.8 1005.7 0.0
10/03:30pm 33.9 38.5 25.3 60 6.1 NW 11 19 6 10 1006.5 1006.4 0.0
10/03:00pm 33.6 38.3 25.6 63 5.7 NW 11 20 6 11 1006.4 1006.3 0.0
10/02:30pm 34.2 39.0 24.5 57 6.8 NW 7 15 4 8 1007.0 1006.9 0.0
10/02:00pm 34.5 39.1 23.2 51 7.8 SW 4 7 2 4 1007.3 1007.2 0.0
10/01:30pm 34.5 39.5 23.2 51 7.9 NNE 2 4 1 2 1007.7 1007.6 0.0
10/01:00pm 33.3 37.6 23.6 56 6.7 SSW 7 11 4 6 1008.2 1008.1 0.0
10/12:30pm 33.3 37.5 24.7 60 6.1 SSW 11 15 6 8 1009.1 1009.0 0.0
10/12:00pm 32.3 36.7 23.8 61 5.9 SW 7 15 4 8 1009.7 1009.6 0.0
10/11:30am 31.3 36.2 24.4 66 4.8 S 6 11 3 6 1010.4 1010.3 0.0
10/11:00am 32.6 37.7 24.6 62 5.6 SSW 6 13 3 7 1010.5 1010.4 0.0
10/10:30am 33.2 38.1 24.4 60 6.2 ENE 6 11 3 6 1010.6 1010.5 0.0
10/10:00am 31.2 36.1 24.3 66 4.8 SSE 6 9 3 5 1010.6 1010.5 0.0
10/09:30am 30.7 35.3 24.1 68 4.6 SE 7 11 4 6 1010.7 1010.6 0.0
10/09:00am 30.5 35.8 24.4 70 4.3 SE 4 7 2 4 1010.6 1010.5 0.0
10/08:30am 28.9 34.1 24.2 76 3.3 SSE 4 7 2 4 1010.5 1010.4 0.0
10/08:00am 27.2 32.3 24.1 83 2.1 S 4 4 2 2 1010.0 1009.9 0.0
10/07:30am 26.5 31.6 24.0 86 1.7 SSE 4 6 2 3 1009.5 1009.4 0.0
10/07:00am 25.4 31.0 24.2 93 0.8 SSE 2 4 1 2 1009.3 1009.2 0.0
10/06:30am 25.2 30.2 24.5 96 0.5 SE 6 6 3 3 1008.6 1008.5 0.0
10/06:00am 24.5 30.1 23.5 94 0.7 CALM 0 2 0 1 1008.1 1008.0 0.0
10/05:30am 24.5 29.3 23.5 94 0.7 ESE 4 6 2 3 1007.9 1007.8 0.0
10/05:00am 23.9 28.7 22.9 94 0.7 ESE 2 4 1 2 1007.6 1007.5 0.0
10/04:30am 23.8 28.9 22.6 93 0.8 CALM 0 0 0 0 1007.4 1007.3 0.0
10/04:00am 24.0 29.2 22.8 93 0.8 CALM 0 2 0 1 1007.2 1007.1 0.0
10/03:30am 24.0 28.8 22.8 93 0.8 NE 2 4 1 2 1006.9 1006.8 0.0
10/03:00am 24.3 29.0 23.3 94 0.7 NE 4 6 2 3 1007.0 1006.9 0.0
10/02:30am 24.4 29.4 23.2 93 0.8 ENE 2 4 1 2 1007.2 1007.1 0.0
10/02:00am 24.6 30.0 23.2 92 0.9 CALM 0 0 0 0 1007.5 1007.4 0.0
10/01:30am 24.6 30.1 23.4 93 0.8 CALM 0 0 0 0 1007.8 1007.7 0.0
10/01:00am 25.0 30.4 23.2 90 1.2 CALM 0 0 0 0 1008.0 1007.9 0.0
10/12:30am 25.3 30.9 23.5 90 1.2 CALM 0 2 0 1 1008.2 1008.1 0.0
10/12:00am 25.6 30.5 23.7 89 1.3 NNE 4 7 2 4 1008.4 1008.3 0.0
 
Date/Time
CST
Temp
°C
App
Temp
°C
Dew
Point
°C
Rel
Hum
%
Delta-T
°C
Wind Press
QNH
hPa
Press
MSL
hPa
Rain since
9am
mm
Dir  Spd
km/h
Gust
km/h
Spd
kts
Gust
kts
09/11:30pm 25.2 31.0 24.0 93 0.8 CALM 0 0 0 0 1008.4 1008.3 0.0
09/11:00pm 25.0 30.5 23.4 91 1.1 CALM 0 2 0 1 1008.6 1008.5 0.0
09/10:30pm 25.4 31.1 23.8 91 1.1 CALM 0 0 0 0 1008.4 1008.3 0.0
09/10:00pm 25.4 31.2 24.0 92 1.0 CALM 0 0 0 0 1008.5 1008.4 0.0
09/09:30pm 25.8 31.8 24.2 91 1.1 CALM 0 0 0 0 1008.5 1008.4 0.0
09/09:00pm 25.8 31.6 24.0 90 1.2 CALM 0 2 0 1 1008.3 1008.2 0.0
09/08:30pm 25.7 31.4 23.7 89 1.4 CALM 0 0 0 0 1008.2 1008.1 0.0
09/08:00pm 25.9 31.7 23.9 89 1.4 CALM 0 0 0 0 1007.7 1007.6 0.0
09/07:30pm 26.6 32.5 24.1 86 1.7 CALM 0 0 0 0 1007.3 1007.2 0.0
09/07:00pm 26.9 32.4 24.0 84 2.0 NNE 2 6 1 3 1006.9 1006.8 0.0
09/06:30pm 27.3 32.9 24.2 83 2.1 NE 2 2 1 1 1006.7 1006.6 0.0
09/06:00pm 27.6 33.4 24.0 81 2.5 CALM 0 4 0 2 1006.2 1006.1 0.0
09/05:30pm 27.8 33.6 24.0 80 2.6 CALM 0 0 0 0 1006.1 1006.0 0.0
09/05:00pm 27.4 32.4 23.2 78 2.9 W 2 6 1 3 1006.3 1006.2 0.0
09/04:30pm 28.1 31.4 23.2 74 3.4 S 11 17 6 9 1006.2 1006.1 0.0
09/04:00pm 27.8 28.6 23.2 76 3.1 S 24 43 13 23 1006.5 1006.4 0.0
09/03:30pm 31.8 35.1 21.9 55 6.7 NNE 7 15 4 8 1005.4 1005.3 0.0
09/03:00pm 33.8 37.8 23.8 56 7.0 NNE 9 15 5 8 1005.8 1005.7 0.0
09/02:30pm 34.0 38.3 23.7 55 7.2 NE 7 17 4 9 1006.0 1005.9 0.0
09/02:00pm 33.7 39.2 24.6 59 6.4 N 4 9 2 5 1006.4 1006.3 0.0
09/01:30pm 33.2 38.3 25.5 64 5.5 NW 9 17 5 9 1006.7 1006.6 0.0
09/01:00pm 32.6 37.1 24.6 62 5.6 NW 9 19 5 10 1007.4 1007.3 0.0
09/12:30pm 32.8 38.3 25.6 66 5.1 NW 7 15 4 8 1007.7 1007.6 0.0
09/12:00pm 33.5 38.9 25.2 62 5.9 NW 6 11 3 6 1008.0 1007.9 0.0
09/11:30am 33.3 39.3 24.2 59 6.4 CALM 0 2 0 1 1008.3 1008.2 0.0
09/11:00am 32.4 37.6 24.2 62 5.7 NW 4 6 2 3 1008.7 1008.6 0.0
09/10:30am 32.0 37.4 23.8 62 5.7 ENE 2 4 1 2 1008.8 1008.7 0.0
09/10:00am 33.1 38.0 24.3 60 6.2 E 6 9 3 5 1008.6 1008.5 0.0
09/09:30am 31.9 37.0 24.0 63 5.5 NNE 4 9 2 5 1008.6 1008.5 0.0
09/09:00am 31.3 36.1 24.2 66 5.0 N 6 7 3 4 1008.5 1008.4 10.2
09/08:30am 30.7 36.2 24.6 70 4.3 NNE 4 9 2 5 1008.6 1008.5 10.2
09/08:00am 29.7 35.5 25.2 77 3.2 NE 4 6 2 3 1008.4 1008.3 10.2
09/07:30am 27.9 34.4 25.1 85 2.0 CALM 0 2 0 1 1008.1 1008.0 10.2
09/07:00am 26.2 31.9 25.0 93 0.8 NE 4 6 2 3 1007.9 1007.8 10.2
09/06:30am 25.5 31.3 24.6 95 0.6 NE 2 4 1 2 1007.4 1007.3 10.2
09/06:00am 25.4 31.5 24.5 95 0.6 CALM 0 0 0 0 1007.1 1007.0 10.2
09/05:30am 25.3 31.3 24.3 94 0.7 CALM 0 0 0 0 1006.8 1006.7 10.2
09/05:00am 25.5 31.6 24.5 94 0.7 CALM 0 0 0 0 1006.4 1006.3 10.2
09/04:30am 25.5 31.6 24.5 94 0.7 CALM 0 0 0 0 1006.2 1006.1 10.2
09/04:00am 25.5 31.6 24.5 94 0.7 CALM 0 0 0 0 1006.3 1006.2 10.2
09/03:30am 25.9 32.2 24.7 93 0.8 CALM 0 0 0 0 1006.2 1006.1 10.2
09/03:00am 26.0 32.0 24.8 93 0.8 NNE 2 6 1 3 1006.4 1006.3 10.2
09/02:30am 25.9 32.0 24.5 92 1.0 CALM 0 0 0 0 1006.5 1006.4 10.2
09/02:00am 26.3 31.9 24.9 92 1.0 N 4 6 2 3 1006.4 1006.3 10.2
09/01:30am 26.0 31.6 24.8 93 0.8 ENE 4 4 2 2 1006.9 1006.8 10.2
09/01:00am 25.9 31.5 24.9 94 0.7 NE 4 6 2 3 1007.0 1006.9 10.2
09/12:30am 25.9 31.9 24.9 94 0.7 NNE 2 6 1 3 1007.1 1007.0 10.2
09/12:00am 25.7 31.2 24.7 94 0.7 NE 4 6 2 3 1007.3 1007.2 10.2
 
Date/Time
CST
Temp
°C
App
Temp
°C
Dew
Point
°C
Rel
Hum
%
Delta-T
°C
Wind Press
QNH
hPa
Press
MSL
hPa
Rain since
9am
mm
Dir  Spd
km/h
Gust
km/h
Spd
kts
Gust
kts
08/11:30pm 25.8 31.8 24.8 94 0.7 NNE 2 4 1 2 1007.1 1007.0 10.2
08/11:00pm 25.9 32.2 24.7 93 0.8 CALM 0 0 0 0 1007.1 1007.0 10.2
08/10:30pm 26.2 32.4 24.6 91 1.1 CALM 0 0 0 0 1007.1 1007.0 10.2
08/10:00pm 26.3 32.6 24.7 91 1.1 CALM 0 2 0 1 1007.0 1006.9 10.2
08/09:30pm 26.1 31.9 24.5 91 1.1 NE 2 4 1 2 1006.9 1006.8 10.2
08/09:00pm 26.1 32.1 24.3 90 1.2 CALM 0 6 0 3 1006.8 1006.7 10.2
08/08:30pm 26.4 32.5 24.4 89 1.4 CALM 0 0 0 0 1006.5 1006.4 10.2
08/08:00pm 26.7 32.6 24.7 89 1.4 NNE 2 4 1 2 1006.1 1006.0 10.2
08/07:30pm 26.9 32.7 24.5 87 1.7 NNE 2 4 1 2 1005.8 1005.7 10.2
08/07:00pm 27.4 33.2 24.5 84 2.0 NNE 2 4 1 2 1005.4 1005.3 10.2
08/06:30pm 27.9 33.5 24.9 84 2.1 NNE 4 6 2 3 1005.0 1004.9 10.2
08/06:00pm 28.2 33.8 24.2 79 2.8 N 2 6 1 3 1005.1 1005.0 10.2
08/05:30pm 27.5 31.3 23.5 79 2.7 NE 9 20 5 11 1004.9 1004.8 10.2

Other Formats:

Comma delimited format used in spreadsheet applications
http://www.bom.gov.au/fwo/IDD60801/IDD60801.94119.axf

JavaScript Object Notation format (JSON) in row-major order
http://www.bom.gov.au/fwo/IDD60801/IDD60801.94119.json